Silesia, Montana
Current Conditions -  °F | °C
As of 1:53 PM on Sunday 21 Dec 2014 (Local Time) from KBIL Reporting Station
Broken Clouds Broken Clouds  
Wind Chill: 51°   Ceiling: 10000
Heat Index: 51°   Visibility: 10mi
Dew Point: 22°   Wind: 33mph
Humidity: 32%   Direction: 290°WNW
Pressure: 29.42"   Gusts: 47mph
Location:  45.5061°N, 109.005°W
Report Text: KBIL 212053Z 29029G41KT 10SM SCT080 BKN100 11/M06 A2942 RMK AO2 PK WND 28048/2033 SLP968 VIRGA T01061056 55002
Loading
Personal Weather Stations






























Interactive Weather Map New forecast layout! Learn more

10-Day Weather Forecast

Advertisements
Track Severe Weather on mobile